createdAt,value
2023-08-17T00:00:38.118Z,88.4
2023-08-17T00:01:54.234Z,88.6
2023-08-17T00:03:10.385Z,87.9
2023-08-17T00:04:25.525Z,87.9
2023-08-17T00:05:41.664Z,87.9
2023-08-17T00:06:57.797Z,87.8
2023-08-17T00:08:13.923Z,88.1
2023-08-17T00:09:30.050Z,88
2023-08-17T00:10:46.183Z,87.3
2023-08-17T00:12:02.320Z,87.1
2023-08-17T00:13:18.446Z,87.1
2023-08-17T00:14:34.578Z,87.2
2023-08-17T00:15:50.717Z,87.3
2023-08-17T00:17:06.846Z,87.6
2023-08-17T00:18:22.980Z,87.9
2023-08-17T00:19:39.113Z,87
2023-08-17T00:20:55.246Z,86.9
2023-08-17T00:22:10.392Z,86.7
2023-08-17T00:23:26.525Z,86.7
2023-08-17T00:24:42.657Z,87.3
2023-08-17T00:25:58.790Z,87.4
2023-08-17T00:27:14.921Z,86.9
2023-08-17T00:28:31.051Z,86.9
2023-08-17T00:29:47.182Z,87.1
2023-08-17T00:31:03.304Z,87.2
2023-08-17T00:32:19.450Z,87.2
2023-08-17T00:33:35.578Z,87.3
2023-08-17T00:34:51.712Z,87.9
2023-08-17T00:36:07.843Z,87.9
2023-08-17T00:37:23.965Z,87.8
2023-08-17T00:38:39.122Z,87.8
2023-08-17T00:39:55.251Z,88.2
2023-08-17T00:41:11.389Z,87.9
2023-08-17T00:42:27.520Z,87.9
2023-08-17T00:43:43.648Z,87.9
2023-08-17T00:44:59.790Z,87.7
2023-08-17T00:46:15.907Z,88.2
2023-08-17T00:47:32.045Z,88.5
2023-08-17T00:48:48.170Z,88.3
2023-08-17T00:50:04.308Z,88.4
2023-08-17T00:51:20.440Z,88.4
2023-08-17T00:52:36.573Z,88.7
2023-08-17T00:53:52.708Z,88.4
2023-08-17T00:55:07.857Z,88.6
2023-08-17T00:56:23.987Z,88.7
2023-08-17T00:57:40.126Z,89
2023-08-17T00:58:56.248Z,89.4
2023-08-17T01:00:12.376Z,89.8
2023-08-17T01:01:28.516Z,89.9
2023-08-17T01:02:44.649Z,89.6
2023-08-17T01:04:00.781Z,89.6
2023-08-17T01:05:16.913Z,89.3
2023-08-17T01:06:33.047Z,89.2
2023-08-17T01:07:49.179Z,89.2
2023-08-17T01:09:05.296Z,89.2
2023-08-17T01:10:21.422Z,89.1
2023-08-17T01:11:36.586Z,89.2
2023-08-17T01:12:52.718Z,89.3
2023-08-17T01:14:08.850Z,89
2023-08-17T01:15:24.974Z,89.2
2023-08-17T01:16:41.107Z,89.1
2023-08-17T01:17:56.269Z,89.2
2023-08-17T01:19:12.399Z,89.2
2023-08-17T01:20:28.532Z,89.3
2023-08-17T01:21:44.659Z,89.4
2023-08-17T01:23:00.803Z,89.4
2023-08-17T01:24:16.930Z,89.3
2023-08-17T01:25:33.059Z,89.3
2023-08-17T01:26:49.196Z,89.2
2023-08-17T01:28:05.322Z,89.1
2023-08-17T01:29:21.455Z,88.9
2023-08-17T01:30:37.591Z,89
2023-08-17T01:31:53.722Z,88.9
2023-08-17T01:33:09.844Z,89.2
2023-08-17T01:34:25.000Z,89.3
2023-08-17T01:35:41.129Z,89.2
2023-08-17T01:36:57.265Z,89.3
2023-08-17T01:38:13.388Z,89.4
2023-08-17T01:39:29.532Z,89.4
2023-08-17T01:40:45.659Z,89
2023-08-17T01:42:01.790Z,89
2023-08-17T01:43:17.928Z,89.2
2023-08-17T01:44:34.053Z,89.2
2023-08-17T01:45:50.184Z,89.1
2023-08-17T01:47:06.323Z,88.9
2023-08-17T01:48:22.442Z,88.8
2023-08-17T01:49:38.583Z,88.8
2023-08-17T01:50:53.729Z,88.8
2023-08-17T01:52:09.873Z,88.9
2023-08-17T01:53:26.000Z,89.1
2023-08-17T01:54:42.128Z,89.1
2023-08-17T01:55:58.256Z,89
2023-08-17T01:57:14.000Z,89.1
2023-08-17T01:58:30.523Z,88.7
2023-08-17T01:59:46.652Z,88.7
2023-08-17T02:01:02.787Z,88.7
2023-08-17T02:02:18.910Z,88.5
2023-08-17T02:03:35.044Z,88.7
2023-08-17T02:04:51.178Z,88.6
2023-08-17T02:06:07.314Z,88.7
2023-08-17T02:07:22.457Z,88.7
2023-08-17T02:08:38.590Z,88.8
2023-08-17T02:09:54.722Z,89
2023-08-17T02:11:10.848Z,89.1
2023-08-17T02:12:26.984Z,89.1
2023-08-17T02:13:43.114Z,88.9
2023-08-17T02:14:59.246Z,88.9
2023-08-17T02:16:15.391Z,89
2023-08-17T02:17:31.517Z,89.3
2023-08-17T02:18:47.644Z,89.3
2023-08-17T02:20:03.780Z,89.2
2023-08-17T02:21:19.902Z,89.1
2023-08-17T02:22:36.044Z,89.2
2023-08-17T02:23:51.178Z,89.4
2023-08-17T02:25:07.310Z,89.3
2023-08-17T02:26:23.451Z,89.2
2023-08-17T02:27:39.589Z,89.2
2023-08-17T02:28:55.713Z,89.3
2023-08-17T02:30:11.851Z,89.1
2023-08-17T02:31:27.975Z,89.1
2023-08-17T02:32:44.117Z,89.2
2023-08-17T02:34:00.246Z,89.4
2023-08-17T02:35:16.366Z,89.3
2023-08-17T02:36:32.498Z,89.5
2023-08-17T02:37:48.630Z,89.5
2023-08-17T02:39:04.772Z,89.5
2023-08-17T02:40:20.901Z,89.6
2023-08-17T02:41:36.037Z,89.5
2023-08-17T02:42:52.175Z,89.2
2023-08-17T02:44:08.310Z,89.3
2023-08-17T02:45:24.441Z,89.4
2023-08-17T02:46:40.583Z,89.2
2023-08-17T02:47:56.715Z,88.9
2023-08-17T02:49:12.828Z,88.6
2023-08-17T02:50:28.979Z,88.6
2023-08-17T02:51:45.098Z,88.7
2023-08-17T02:53:01.231Z,88.8
2023-08-17T02:54:17.357Z,88.9
2023-08-17T02:55:33.501Z,88.8
2023-08-17T02:56:49.618Z,88.9
2023-08-17T02:58:04.779Z,88.8
2023-08-17T02:59:20.910Z,88.9
2023-08-17T03:00:37.044Z,88.7
2023-08-17T03:01:53.179Z,88.6
2023-08-17T03:03:09.307Z,88.5
2023-08-17T03:04:25.444Z,88.6
2023-08-17T03:05:41.563Z,88.5
2023-08-17T03:06:57.700Z,88.5
2023-08-17T03:08:13.839Z,88.4
2023-08-17T03:09:29.970Z,88.4
2023-08-17T03:10:46.101Z,88.3
2023-08-17T03:12:02.227Z,88
2023-08-17T03:13:18.364Z,87.8
2023-08-17T03:14:33.516Z,87.8
2023-08-17T03:15:49.641Z,87.8
2023-08-17T03:17:05.775Z,87.7
2023-08-17T03:18:21.911Z,87.8
2023-08-17T03:19:38.038Z,87.8
2023-08-17T03:20:54.168Z,88.2
2023-08-17T03:22:10.300Z,88
2023-08-17T03:23:26.428Z,88
2023-08-17T03:24:42.564Z,88
2023-08-17T03:25:58.693Z,88.2
2023-08-17T03:27:14.830Z,88.3
2023-08-17T03:28:30.963Z,88.4
2023-08-17T03:29:47.089Z,88.4
2023-08-17T03:31:03.222Z,88
2023-08-17T03:32:18.373Z,88
2023-08-17T03:33:34.513Z,87.8
2023-08-17T03:34:50.639Z,87.7
2023-08-17T03:36:06.767Z,87.5
2023-08-17T03:37:22.898Z,87.5
2023-08-17T03:38:39.030Z,87.6
2023-08-17T03:39:55.162Z,87.4
2023-08-17T03:41:11.295Z,87.4
2023-08-17T03:42:27.425Z,87.6
2023-08-17T03:43:43.558Z,87.4
2023-08-17T03:44:59.691Z,87.5
2023-08-17T03:46:15.826Z,87.6
2023-08-17T03:47:31.958Z,87.5
2023-08-17T03:48:47.103Z,87.7
2023-08-17T03:50:03.233Z,87.6
2023-08-17T03:51:19.364Z,87.6
2023-08-17T03:52:35.494Z,87.5
2023-08-17T03:53:51.637Z,87.5
2023-08-17T03:55:07.763Z,87.4
2023-08-17T03:56:23.892Z,87.5
2023-08-17T03:57:40.025Z,87.4
2023-08-17T03:58:56.153Z,87.3
2023-08-17T04:00:12.295Z,87.1
2023-08-17T04:01:28.417Z,87.1
2023-08-17T04:02:44.552Z,87
2023-08-17T04:04:00.676Z,87
2023-08-17T04:05:15.835Z,87.1
2023-08-17T04:06:31.969Z,87.2
2023-08-17T04:07:48.101Z,87.2
2023-08-17T04:09:04.221Z,87.3
2023-08-17T04:10:20.362Z,87.2
2023-08-17T04:11:36.496Z,87.2
2023-08-17T04:12:52.623Z,87.3
2023-08-17T04:14:08.752Z,87.3
2023-08-17T04:15:24.891Z,87.3
2023-08-17T04:16:41.024Z,87.3
2023-08-17T04:17:57.154Z,87.2
2023-08-17T04:19:13.288Z,87.3
2023-08-17T04:20:29.417Z,87.5
2023-08-17T04:21:45.549Z,87.4
2023-08-17T04:23:00.697Z,87.4
2023-08-17T04:24:16.818Z,87.6
2023-08-17T04:25:32.965Z,87.4
2023-08-17T04:26:49.097Z,87.4
2023-08-17T04:28:05.226Z,87.5
2023-08-17T04:29:21.355Z,87.4
2023-08-17T04:30:37.490Z,87.1
2023-08-17T04:31:53.623Z,87
2023-08-17T04:33:09.757Z,87.1
2023-08-17T04:34:25.891Z,87
2023-08-17T04:35:42.022Z,86.8
2023-08-17T04:36:58.147Z,86.5
2023-08-17T04:38:14.287Z,86.6
2023-08-17T04:39:30.416Z,86.9
2023-08-17T04:40:45.559Z,86.9
2023-08-17T04:42:01.703Z,87.1
2023-08-17T04:43:17.831Z,87.1
2023-08-17T04:44:33.957Z,87.1
2023-08-17T04:45:50.085Z,87.2
2023-08-17T04:47:06.231Z,87.2
2023-08-17T04:48:22.360Z,87.1
2023-08-17T04:49:38.493Z,86.9
2023-08-17T04:50:54.623Z,86.9
2023-08-17T04:52:10.749Z,86.8
2023-08-17T04:53:26.885Z,86.8
2023-08-17T04:54:43.011Z,86.8
2023-08-17T04:55:59.142Z,86.8
2023-08-17T04:57:14.295Z,86.7
2023-08-17T04:58:30.433Z,86.5
2023-08-17T04:59:46.557Z,86.5
2023-08-17T05:01:02.687Z,86
2023-08-17T05:02:18.821Z,86.2
2023-08-17T05:03:34.956Z,86
2023-08-17T05:04:51.081Z,85.9
2023-08-17T05:06:07.221Z,85.8
2023-08-17T05:07:23.357Z,86
2023-08-17T05:08:39.482Z,85.8
2023-08-17T05:09:55.606Z,85.6
2023-08-17T05:11:11.745Z,85.8
2023-08-17T05:12:27.878Z,85.8
2023-08-17T05:13:43.030Z,85.6
2023-08-17T05:14:59.159Z,85.7
2023-08-17T05:16:15.291Z,85.5
2023-08-17T05:17:31.427Z,85.3
2023-08-17T05:18:47.555Z,85.3
2023-08-17T05:20:03.691Z,85.5
2023-08-17T05:21:19.823Z,85.6
2023-08-17T05:22:35.944Z,85.4
2023-08-17T05:23:52.079Z,85.4
2023-08-17T05:25:08.198Z,85.6
2023-08-17T05:26:24.342Z,85.7
2023-08-17T05:27:40.471Z,85.8
2023-08-17T05:28:56.611Z,85.9
2023-08-17T05:30:11.750Z,85.8
2023-08-17T05:31:27.888Z,85.8
2023-08-17T05:32:43.047Z,85.7
2023-08-17T05:33:59.176Z,85.6
2023-08-17T05:35:15.311Z,85.6
2023-08-17T05:36:31.437Z,85.6
2023-08-17T05:37:47.574Z,85.7
2023-08-17T05:39:03.710Z,85.7
2023-08-17T05:40:19.821Z,85.5
2023-08-17T05:41:35.967Z,85.5
2023-08-17T05:42:52.091Z,85.4
2023-08-17T05:44:08.231Z,85.3
2023-08-17T05:45:24.370Z,85.2
2023-08-17T05:46:40.493Z,85
2023-08-17T05:47:56.630Z,85
2023-08-17T05:49:11.777Z,84.9
2023-08-17T05:50:27.915Z,84.8
2023-08-17T05:51:44.042Z,84.6
2023-08-17T05:53:00.162Z,84.1
2023-08-17T05:54:16.301Z,83.9
2023-08-17T05:55:32.439Z,83.6
2023-08-17T05:56:48.562Z,83.3
2023-08-17T05:58:04.700Z,83.1
2023-08-17T05:59:20.830Z,82.7
2023-08-17T06:00:36.963Z,82.7
2023-08-17T06:01:53.089Z,82.7
2023-08-17T06:03:09.230Z,82.6
2023-08-17T06:04:25.359Z,82.4
2023-08-17T06:05:40.502Z,81.7
2023-08-17T06:06:56.642Z,81.2
2023-08-17T06:08:12.767Z,81.1
2023-08-17T06:09:28.896Z,80.6
2023-08-17T06:10:45.030Z,80.4
2023-08-17T06:12:01.166Z,80.1
2023-08-17T06:13:17.289Z,80.4
2023-08-17T06:14:33.427Z,80.4
2023-08-17T06:15:49.560Z,80.7
2023-08-17T06:17:05.689Z,81.1
2023-08-17T06:18:21.819Z,81.4
2023-08-17T06:19:37.961Z,81.6
2023-08-17T06:20:54.091Z,81.4
2023-08-17T06:22:09.231Z,81.2
2023-08-17T06:23:25.370Z,81.1
2023-08-17T06:24:41.499Z,81.2
2023-08-17T06:25:57.628Z,81.3
2023-08-17T06:27:13.766Z,81
2023-08-17T06:28:29.894Z,80.6
2023-08-17T06:29:46.028Z,80.5
2023-08-17T06:31:02.164Z,80.4
2023-08-17T06:32:18.299Z,79.9
2023-08-17T06:33:34.432Z,79.8
2023-08-17T06:34:50.562Z,79.4
2023-08-17T06:36:06.690Z,79.6
2023-08-17T06:37:22.825Z,79.3
2023-08-17T06:38:38.959Z,79.6
2023-08-17T06:39:54.098Z,80.1
2023-08-17T06:41:10.239Z,80
2023-08-17T06:42:26.362Z,80.2
2023-08-17T06:43:42.491Z,80.3
2023-08-17T06:44:58.632Z,80.2
2023-08-17T06:46:14.757Z,80.3
2023-08-17T06:47:30.892Z,80
2023-08-17T06:48:47.027Z,80.5
2023-08-17T06:50:03.146Z,80.6
2023-08-17T06:51:19.297Z,80.7
2023-08-17T06:52:35.417Z,80.8
2023-08-17T06:53:51.554Z,81.1
2023-08-17T06:55:07.693Z,81
2023-08-17T06:56:22.836Z,81.2
2023-08-17T06:57:38.967Z,81.1
2023-08-17T06:58:55.093Z,81.4
2023-08-17T07:00:11.235Z,81.4
2023-08-17T07:01:27.368Z,81.4
2023-08-17T07:02:43.501Z,81.7
2023-08-17T07:03:59.631Z,81.7
2023-08-17T07:05:15.758Z,81.8
2023-08-17T07:06:31.884Z,81.7
2023-08-17T07:07:48.017Z,81.7
2023-08-17T07:09:04.148Z,81.5
2023-08-17T07:10:20.290Z,81.6
2023-08-17T07:11:36.418Z,81.4
2023-08-17T07:12:51.562Z,81.3
2023-08-17T07:14:07.695Z,81.4
2023-08-17T07:15:23.825Z,81.3
2023-08-17T07:16:39.961Z,81.3
2023-08-17T07:17:56.092Z,81.4
2023-08-17T07:19:12.216Z,80.8
2023-08-17T07:20:28.356Z,81.1
2023-08-17T07:21:44.489Z,81.1
2023-08-17T07:23:00.623Z,80.9
2023-08-17T07:24:16.759Z,80.8
2023-08-17T07:25:32.890Z,80.8
2023-08-17T07:26:49.018Z,80.8
2023-08-17T07:28:05.151Z,80.3
2023-08-17T07:29:20.298Z,80.2
2023-08-17T07:30:36.432Z,80.2
2023-08-17T07:31:52.564Z,80.3
2023-08-17T07:33:08.697Z,80.3
2023-08-17T07:34:24.832Z,80.8
2023-08-17T07:35:40.960Z,80.6
2023-08-17T07:36:57.097Z,80.3
2023-08-17T07:38:13.217Z,80.3
2023-08-17T07:39:29.357Z,80.3
2023-08-17T07:40:45.486Z,79.4
2023-08-17T07:42:01.623Z,78.9
2023-08-17T07:43:17.744Z,78.9
2023-08-17T07:44:33.888Z,79.1
2023-08-17T07:45:49.033Z,78.9
2023-08-17T07:47:05.170Z,78.9
2023-08-17T07:48:21.294Z,78.2
2023-08-17T07:49:37.426Z,77.9
2023-08-17T07:50:53.561Z,77.8
2023-08-17T07:52:09.687Z,77.5
2023-08-17T07:53:25.817Z,77.2
2023-08-17T07:54:41.962Z,76.7
2023-08-17T07:55:58.095Z,76.5
2023-08-17T07:57:14.219Z,76.2
2023-08-17T07:58:30.351Z,76.1
2023-08-17T07:59:46.484Z,76.6
2023-08-17T08:01:02.611Z,76.4
2023-08-17T08:02:17.760Z,76.1
2023-08-17T08:03:33.893Z,75.8
2023-08-17T08:04:50.024Z,75.4
2023-08-17T08:06:06.161Z,75.4
2023-08-17T08:07:22.300Z,76.4
2023-08-17T08:08:38.419Z,75.1
2023-08-17T08:09:54.552Z,75.7
2023-08-17T08:11:10.682Z,76
2023-08-17T08:12:26.820Z,76.5
2023-08-17T08:13:42.953Z,75.3
2023-08-17T08:14:59.079Z,75
2023-08-17T08:16:15.211Z,74.8
2023-08-17T08:17:31.353Z,73.9
2023-08-17T08:18:46.496Z,73.8
2023-08-17T08:20:02.608Z,73.6
2023-08-17T08:21:18.766Z,73.9
2023-08-17T08:22:34.898Z,73.8
2023-08-17T08:23:51.027Z,72.4
2023-08-17T08:25:07.153Z,72.8
2023-08-17T08:26:23.285Z,72.9
2023-08-17T08:27:39.426Z,73.3
2023-08-17T08:28:55.550Z,73
2023-08-17T08:30:11.691Z,72.2
2023-08-17T08:31:27.830Z,72.6
2023-08-17T08:32:43.942Z,73.3
2023-08-17T08:34:00.078Z,72.9
2023-08-17T08:35:16.211Z,72.4
2023-08-17T08:36:31.355Z,72.7
2023-08-17T08:37:47.492Z,71.4
2023-08-17T08:39:03.623Z,70.6
2023-08-17T08:40:19.759Z,70.3
2023-08-17T08:41:35.893Z,70.2
2023-08-17T08:42:52.023Z,70
2023-08-17T08:44:08.148Z,69.2
2023-08-17T08:45:24.285Z,68.1
2023-08-17T08:46:40.417Z,68.3
2023-08-17T08:47:56.551Z,67.7
2023-08-17T08:49:12.673Z,68.1
2023-08-17T08:50:28.821Z,67.9
2023-08-17T08:51:44.950Z,69.5
2023-08-17T08:53:01.074Z,69.2
2023-08-17T08:54:16.232Z,68.1
2023-08-17T08:55:32.357Z,68
2023-08-17T08:56:48.494Z,67.4
2023-08-17T08:58:04.627Z,67.2
2023-08-17T08:59:20.757Z,66.5
2023-08-17T09:00:36.890Z,66.6
2023-08-17T09:01:53.024Z,67.2
2023-08-17T09:03:09.157Z,65.9
2023-08-17T09:04:25.280Z,65.5
2023-08-17T09:05:41.421Z,64.8
2023-08-17T09:06:57.550Z,64.8
2023-08-17T09:08:13.679Z,65.2
2023-08-17T09:09:29.815Z,64.4
2023-08-17T09:10:45.947Z,64.5
2023-08-17T09:12:01.093Z,64.3
2023-08-17T09:13:17.223Z,64.1
2023-08-17T09:14:33.360Z,63.6
2023-08-17T09:15:49.492Z,63.8
2023-08-17T09:17:05.623Z,64.3
2023-08-17T09:18:21.735Z,64.3
2023-08-17T09:19:37.889Z,63.7
2023-08-17T09:20:54.020Z,63.5
2023-08-17T09:22:10.153Z,63.6
2023-08-17T09:23:26.289Z,62.2
2023-08-17T09:24:42.415Z,62.9
2023-08-17T09:25:58.548Z,62
2023-08-17T09:27:14.669Z,62.8
2023-08-17T09:28:30.815Z,62.4
2023-08-17T09:29:45.967Z,62.5
2023-08-17T09:31:02.097Z,61.9
2023-08-17T09:32:18.229Z,60.8
2023-08-17T09:33:34.366Z,61.6
2023-08-17T09:34:50.488Z,62.2
2023-08-17T09:36:06.622Z,61.5
2023-08-17T09:37:22.755Z,61.4
2023-08-17T09:38:38.882Z,61.5
2023-08-17T09:39:55.022Z,61.6
2023-08-17T09:41:11.155Z,61.5
2023-08-17T09:42:27.277Z,61.2
2023-08-17T09:43:43.410Z,61.6
2023-08-17T09:44:59.552Z,61.4
2023-08-17T09:46:14.697Z,61.1
2023-08-17T09:47:29.855Z,61.7
2023-08-17T09:48:45.986Z,62
2023-08-17T09:50:02.103Z,60.9
2023-08-17T09:51:18.249Z,60
2023-08-17T09:52:34.381Z,58.8
2023-08-17T09:53:50.515Z,57.6
2023-08-17T09:55:06.654Z,56.6
2023-08-17T09:56:22.782Z,56
2023-08-17T09:57:38.909Z,55.9
2023-08-17T09:58:55.048Z,55.5
2023-08-17T10:00:11.180Z,55.6
2023-08-17T10:01:27.314Z,55.4
2023-08-17T10:02:43.446Z,56.6
2023-08-17T10:03:59.578Z,56.8
2023-08-17T10:05:14.721Z,56.5
2023-08-17T10:06:30.858Z,56
2023-08-17T10:07:46.986Z,55.7
2023-08-17T10:09:03.121Z,55.1
2023-08-17T10:10:19.258Z,53.9
2023-08-17T10:11:35.387Z,54.4
2023-08-17T10:12:51.520Z,54.7
2023-08-17T10:14:07.646Z,53.7
2023-08-17T10:15:23.786Z,53.8
2023-08-17T10:16:39.916Z,52.1
2023-08-17T10:17:56.042Z,51.3
2023-08-17T10:19:12.181Z,52.4
2023-08-17T10:20:28.313Z,52.4
2023-08-17T10:21:44.451Z,52.3
2023-08-17T10:22:59.594Z,52.9
2023-08-17T10:24:15.718Z,53.2
2023-08-17T10:25:31.870Z,53.4
2023-08-17T10:26:47.991Z,54.4
2023-08-17T10:28:04.116Z,55.2
2023-08-17T10:29:20.249Z,55.5
2023-08-17T10:30:36.390Z,54.9
2023-08-17T10:31:52.524Z,54.7
2023-08-17T10:33:08.653Z,55.1
2023-08-17T10:34:24.791Z,55.1
2023-08-17T10:35:40.907Z,56
2023-08-17T10:36:57.050Z,56.5
2023-08-17T10:38:13.181Z,57.4
2023-08-17T10:39:29.317Z,57.9
2023-08-17T10:40:44.470Z,57.7
2023-08-17T10:42:00.604Z,57.5
2023-08-17T10:43:16.736Z,57.5
2023-08-17T10:44:32.871Z,58.1
2023-08-17T10:45:48.998Z,58.6
2023-08-17T10:47:05.125Z,58.8
2023-08-17T10:48:21.256Z,59.6
2023-08-17T10:49:37.393Z,59.8
2023-08-17T10:50:53.530Z,60.6
2023-08-17T10:52:09.658Z,61.3
2023-08-17T10:53:25.790Z,61.7
2023-08-17T10:54:41.926Z,62.7
2023-08-17T10:55:58.053Z,62.5
2023-08-17T10:57:14.190Z,64
2023-08-17T10:58:29.341Z,64.2
2023-08-17T10:59:45.462Z,65.9
2023-08-17T11:01:01.605Z,66.5
2023-08-17T11:02:17.731Z,66.7
2023-08-17T11:03:33.863Z,66.5
2023-08-17T11:04:49.999Z,67.7
2023-08-17T11:06:06.127Z,68.7
2023-08-17T11:07:22.253Z,66.1
2023-08-17T11:08:38.407Z,65.6
2023-08-17T11:09:54.530Z,66.7
2023-08-17T11:11:10.647Z,68.8
2023-08-17T11:12:26.796Z,68.4
2023-08-17T11:13:42.926Z,69.3
2023-08-17T11:14:58.069Z,69.1
2023-08-17T11:16:14.200Z,69.1
2023-08-17T11:17:30.331Z,68.8
2023-08-17T11:18:46.467Z,67.7
2023-08-17T11:20:02.588Z,68.6
2023-08-17T11:21:18.733Z,69.9
2023-08-17T11:22:34.866Z,71.6
2023-08-17T11:23:50.994Z,72.3
2023-08-17T11:25:07.124Z,73.2
2023-08-17T11:26:23.264Z,73.6
2023-08-17T11:27:39.394Z,73.4
2023-08-17T11:28:55.519Z,73.2
2023-08-17T11:30:11.653Z,74.5
2023-08-17T11:31:26.808Z,74.3
2023-08-17T11:32:42.933Z,74.5
2023-08-17T11:33:59.072Z,74.5
2023-08-17T11:35:15.207Z,74.5
2023-08-17T11:36:31.336Z,74.7
2023-08-17T11:37:47.467Z,74.9
2023-08-17T11:39:03.603Z,75.8
2023-08-17T11:40:19.732Z,75.8
2023-08-17T11:41:35.860Z,74.4
2023-08-17T11:42:52.000Z,73.5
2023-08-17T11:44:08.121Z,73.3
2023-08-17T11:45:24.257Z,73.3
2023-08-17T11:46:40.392Z,71.5
2023-08-17T11:47:56.527Z,72.3
2023-08-17T11:49:11.670Z,73.2
2023-08-17T11:50:27.808Z,73.6
2023-08-17T11:51:43.936Z,73.5
2023-08-17T11:53:00.074Z,73.4
2023-08-17T11:54:16.196Z,73.7
2023-08-17T11:55:32.341Z,74
2023-08-17T11:56:48.472Z,71.3
2023-08-17T11:58:04.600Z,71.7
2023-08-17T11:59:20.722Z,71.1
2023-08-17T12:00:36.862Z,70.2
2023-08-17T12:01:52.989Z,69.8
2023-08-17T12:03:09.119Z,70.2
2023-08-17T12:04:25.250Z,70.1
2023-08-17T12:05:40.402Z,71.9
2023-08-17T12:06:56.530Z,72.3
2023-08-17T12:08:12.670Z,72
2023-08-17T12:09:28.798Z,72.8
2023-08-17T12:10:44.941Z,72.6
2023-08-17T12:12:01.063Z,73
2023-08-17T12:13:17.201Z,74.2
2023-08-17T12:14:33.340Z,75.3
2023-08-17T12:15:49.464Z,77.5
2023-08-17T12:17:05.589Z,75.5
2023-08-17T12:18:21.736Z,76.2
2023-08-17T12:19:37.861Z,74.2
2023-08-17T12:20:53.993Z,74.5
2023-08-17T12:22:09.137Z,74.5
2023-08-17T12:23:25.277Z,74.8
2023-08-17T12:24:41.401Z,75.3
2023-08-17T12:25:57.541Z,76.8
2023-08-17T12:27:13.665Z,76
2023-08-17T12:28:29.806Z,75.6
2023-08-17T12:29:45.933Z,75.1
2023-08-17T12:31:02.067Z,75.6
2023-08-17T12:32:18.192Z,76.4
2023-08-17T12:33:34.338Z,77.1
2023-08-17T12:34:50.456Z,77.7
2023-08-17T12:36:06.592Z,73.8
2023-08-17T12:37:22.733Z,71
2023-08-17T12:38:38.848Z,73.5
2023-08-17T12:39:54.001Z,72.8
2023-08-17T12:41:10.138Z,74.1
2023-08-17T12:42:26.275Z,72.5
2023-08-17T12:43:42.000Z,72.5
2023-08-17T12:44:58.538Z,72.5
2023-08-17T12:46:14.686Z,72.6
2023-08-17T12:47:30.795Z,71.8
2023-08-17T12:48:46.936Z,72.3
2023-08-17T12:50:03.043Z,71.7
2023-08-17T12:51:19.195Z,73
2023-08-17T12:52:35.328Z,72.6
2023-08-17T12:53:51.465Z,73.3
2023-08-17T12:55:07.598Z,73.5
2023-08-17T12:56:22.741Z,72.7
2023-08-17T12:57:38.860Z,73.3
2023-08-17T12:58:54.997Z,73
2023-08-17T13:00:11.128Z,72.7
2023-08-17T13:01:27.268Z,71.2
2023-08-17T13:02:43.397Z,71
2023-08-17T13:03:59.531Z,70.7
2023-08-17T13:05:15.667Z,69.6
2023-08-17T13:06:31.792Z,69.8
2023-08-17T13:07:47.935Z,70.3
2023-08-17T13:09:04.052Z,70.2
2023-08-17T13:10:20.203Z,69.8
2023-08-17T13:11:36.326Z,69
2023-08-17T13:12:51.470Z,69.1
2023-08-17T13:14:07.611Z,70.3
2023-08-17T13:15:23.733Z,70.2
2023-08-17T13:16:39.869Z,69.5
2023-08-17T13:17:56.007Z,70.8
2023-08-17T13:19:12.134Z,70.5
2023-08-17T13:20:28.269Z,70
2023-08-17T13:21:44.403Z,69.8
2023-08-17T13:23:00.532Z,69
2023-08-17T13:24:16.657Z,69.4
2023-08-17T13:25:32.800Z,69.1
2023-08-17T13:26:48.925Z,68.5
2023-08-17T13:28:05.063Z,68.6
2023-08-17T13:29:21.197Z,68.8
2023-08-17T13:30:36.343Z,68.5
2023-08-17T13:31:52.473Z,68.3
2023-08-17T13:33:08.600Z,69.1
2023-08-17T13:34:24.737Z,69.3
2023-08-17T13:35:40.873Z,69
2023-08-17T13:36:57.007Z,68.8
2023-08-17T13:38:13.128Z,67.8
2023-08-17T13:39:29.258Z,67.8
2023-08-17T13:40:45.403Z,67.5
2023-08-17T13:42:01.533Z,67.9
2023-08-17T13:43:17.657Z,67.4
2023-08-17T13:44:33.793Z,67.8
2023-08-17T13:45:49.922Z,65.9
2023-08-17T13:47:05.071Z,65.7
2023-08-17T13:48:21.202Z,66.2
2023-08-17T13:49:37.342Z,66
2023-08-17T13:50:53.474Z,65.2
2023-08-17T13:52:09.603Z,60.8
2023-08-17T13:53:25.730Z,60.2
2023-08-17T13:54:41.868Z,60.5
2023-08-17T13:55:58.000Z,58.5
2023-08-17T13:57:14.130Z,59.4
2023-08-17T13:58:30.267Z,58.1
2023-08-17T13:59:46.401Z,59.4
2023-08-17T14:01:02.525Z,61.1
2023-08-17T14:02:18.665Z,61.4
2023-08-17T14:03:33.819Z,61.7
2023-08-17T14:04:49.941Z,58.4
2023-08-17T14:06:06.082Z,58.6
2023-08-17T14:07:22.221Z,56.9
2023-08-17T14:08:38.350Z,56.5
2023-08-17T14:09:54.481Z,57.3
2023-08-17T14:11:10.609Z,57.8
2023-08-17T14:12:26.742Z,56.9
2023-08-17T14:13:42.878Z,56.4
2023-08-17T14:14:59.009Z,54.6
2023-08-17T14:16:15.147Z,55.3
2023-08-17T14:17:31.277Z,55.4
2023-08-17T14:18:47.399Z,55.5
2023-08-17T14:20:02.538Z,56.1
2023-08-17T14:21:18.693Z,56.6
2023-08-17T14:22:34.000Z,57
2023-08-17T14:23:50.951Z,57.6
2023-08-17T14:25:07.080Z,58.3
2023-08-17T14:26:23.214Z,58.8
2023-08-17T14:27:39.357Z,60
2023-08-17T14:28:55.480Z,59.7
2023-08-17T14:30:11.607Z,59.8
2023-08-17T14:31:27.740Z,58.8
2023-08-17T14:32:43.882Z,59
2023-08-17T14:34:00.003Z,58.7
2023-08-17T14:35:16.142Z,58.6
2023-08-17T14:36:31.285Z,56.8
2023-08-17T14:37:47.412Z,56.4
2023-08-17T14:39:03.550Z,57.2
2023-08-17T14:40:19.686Z,56.5
2023-08-17T14:41:35.814Z,56.5
2023-08-17T14:42:51.957Z,57.2
2023-08-17T14:44:08.072Z,52.4
2023-08-17T14:45:24.211Z,50.7
2023-08-17T14:46:40.344Z,50.5
2023-08-17T14:47:56.468Z,50.7
2023-08-17T14:49:12.616Z,50.7
2023-08-17T14:50:28.744Z,49.1
2023-08-17T14:51:44.876Z,51
2023-08-17T14:53:01.005Z,51.2
2023-08-17T14:54:16.154Z,52
2023-08-17T14:55:32.290Z,51.3
2023-08-17T14:56:48.426Z,51.3
2023-08-17T14:58:04.546Z,50.1
2023-08-17T14:59:20.682Z,50.4
2023-08-17T15:00:36.817Z,49.8
2023-08-17T15:01:52.949Z,50.4
2023-08-17T15:03:09.082Z,49.3
2023-08-17T15:04:25.214Z,47.4
2023-08-17T15:05:41.347Z,47.7
2023-08-17T15:06:57.478Z,49.5
2023-08-17T15:08:13.604Z,50.2
2023-08-17T15:09:29.745Z,51.2
2023-08-17T15:10:45.877Z,51.6
2023-08-17T15:12:01.017Z,52.1
2023-08-17T15:13:17.156Z,52.6
2023-08-17T15:14:33.283Z,53
2023-08-17T15:15:49.418Z,52.6
2023-08-17T15:17:05.550Z,52.3
2023-08-17T15:18:21.682Z,52.9
2023-08-17T15:19:37.814Z,52.3
2023-08-17T15:20:53.946Z,52.4
2023-08-17T15:22:10.072Z,52.5
2023-08-17T15:23:26.208Z,53.4
2023-08-17T15:24:42.340Z,53.6
2023-08-17T15:25:58.472Z,53.6
2023-08-17T15:27:14.604Z,53.5
2023-08-17T15:28:29.752Z,53.3
2023-08-17T15:29:45.885Z,52.7
2023-08-17T15:31:02.019Z,52.3
2023-08-17T15:32:18.149Z,51.8
2023-08-17T15:33:34.290Z,51.3
2023-08-17T15:34:50.410Z,51
2023-08-17T15:36:06.548Z,51.1
2023-08-17T15:37:22.683Z,51.6
2023-08-17T15:38:38.818Z,51
2023-08-17T15:39:54.940Z,51.3
2023-08-17T15:41:11.065Z,51.1
2023-08-17T15:42:27.205Z,50.1
2023-08-17T15:43:43.351Z,50.3
2023-08-17T15:44:58.490Z,50.8
2023-08-17T15:46:14.619Z,50.6
2023-08-17T15:47:30.756Z,50.3
2023-08-17T15:48:46.881Z,50.5
2023-08-17T15:50:03.020Z,50.5
2023-08-17T15:51:19.152Z,50.9
2023-08-17T15:52:35.290Z,51
2023-08-17T15:53:51.415Z,50.1
2023-08-17T15:55:07.552Z,50.1
2023-08-17T15:56:23.678Z,49.6
2023-08-17T15:57:39.811Z,50.2
2023-08-17T15:58:55.945Z,50.3
2023-08-17T16:00:12.075Z,50.8
2023-08-17T16:01:28.210Z,50.9
2023-08-17T16:02:43.361Z,50.8
2023-08-17T16:03:59.489Z,50.2
2023-08-17T16:05:15.616Z,51
2023-08-17T16:06:31.756Z,52
2023-08-17T16:07:47.889Z,53.2
2023-08-17T16:09:04.019Z,54
2023-08-17T16:10:20.150Z,53.6
2023-08-17T16:11:36.288Z,53.5
2023-08-17T16:12:52.426Z,53.7
2023-08-17T16:14:08.553Z,53.9
2023-08-17T16:15:24.674Z,53.8
2023-08-17T16:16:40.813Z,53.3
2023-08-17T16:17:56.945Z,54.1
2023-08-17T16:19:12.093Z,54.4
2023-08-17T16:20:28.230Z,54.7
2023-08-17T16:21:44.360Z,54.4
2023-08-17T16:23:00.499Z,54.9
2023-08-17T16:24:16.622Z,56.1
2023-08-17T16:25:32.753Z,56.4
2023-08-17T16:26:48.886Z,57
2023-08-17T16:28:05.020Z,57.8
2023-08-17T16:29:21.149Z,58.3
2023-08-17T16:30:37.275Z,58.9
2023-08-17T16:31:53.414Z,58.9
2023-08-17T16:33:09.545Z,58.8
2023-08-17T16:34:25.681Z,58.8
2023-08-17T16:35:40.832Z,57.3
2023-08-17T16:36:56.969Z,57.4
2023-08-17T16:38:13.095Z,57.2
2023-08-17T16:39:29.223Z,57.5
2023-08-17T16:40:45.364Z,57.5
2023-08-17T16:42:01.488Z,57.2
2023-08-17T16:43:17.624Z,57.5
2023-08-17T16:44:33.751Z,58.4
2023-08-17T16:45:49.876Z,59
2023-08-17T16:47:06.020Z,59.7
2023-08-17T16:48:22.157Z,59.9
2023-08-17T16:49:38.286Z,60.3
2023-08-17T16:50:54.411Z,60.7
2023-08-17T16:52:10.545Z,60.8
2023-08-17T16:53:25.701Z,61
2023-08-17T16:54:41.833Z,60.8
2023-08-17T16:55:57.954Z,60.5
2023-08-17T16:57:14.092Z,60.5
2023-08-17T16:58:30.226Z,60.9